createdAt,value
2022-10-28T03:10:19.441Z,12.15
2022-10-28T03:13:22.159Z,12.09
2022-10-28T03:16:24.263Z,12.14
2022-10-28T03:19:26.602Z,12.16
2022-10-28T03:22:28.668Z,12.11
2022-10-28T03:25:30.977Z,12.10
2022-10-28T03:28:33.060Z,12.14
2022-10-28T03:31:35.459Z,12.08
2022-10-28T03:34:37.583Z,12.13
2022-10-28T03:37:43.787Z,12.19
2022-10-28T03:40:50.177Z,12.32
2022-10-28T03:43:52.498Z,12.25
2022-10-28T03:46:54.533Z,12.24
2022-10-28T03:49:56.834Z,12.23
2022-10-28T03:52:58.949Z,12.27
2022-10-28T03:56:02.578Z,12.26
2022-10-28T03:59:05.049Z,12.39
2022-10-28T04:02:07.443Z,12.40
2022-10-28T04:05:09.885Z,12.41
2022-10-28T04:08:11.960Z,12.29
2022-10-28T04:11:14.362Z,12.34
2022-10-28T04:14:16.407Z,12.35
2022-10-28T04:17:18.740Z,12.26
2022-10-28T04:20:20.847Z,12.28
2022-10-28T04:23:23.208Z,12.33
2022-10-28T04:26:25.372Z,12.23
2022-10-28T04:29:27.683Z,12.13
2022-10-28T04:32:29.735Z,12.11
2022-10-28T04:35:32.068Z,12.16
2022-10-28T04:38:34.186Z,12.20
2022-10-28T04:41:36.493Z,12.26
2022-10-28T04:44:38.524Z,12.13
2022-10-28T04:47:40.835Z,12.06
2022-10-28T04:50:43.155Z,12.07
2022-10-28T04:53:45.709Z,12.03
2022-10-28T04:56:47.818Z,12.19
2022-10-28T04:59:50.153Z,12.21
2022-10-28T05:02:52.353Z,12.16
2022-10-28T05:05:54.794Z,12.12
2022-10-28T05:08:56.840Z,12.11
2022-10-28T05:11:59.176Z,12.00
2022-10-28T05:15:01.250Z,11.93
2022-10-28T05:18:03.698Z,11.87
2022-10-28T05:21:06.040Z,11.87
2022-10-28T05:24:08.562Z,11.81
2022-10-28T05:27:10.637Z,11.76
2022-10-28T05:30:14.356Z,11.79
2022-10-28T05:33:16.488Z,11.70
2022-10-28T05:36:18.805Z,11.66
2022-10-28T05:39:20.875Z,11.68
2022-10-28T05:42:23.393Z,11.66
2022-10-28T05:45:25.546Z,11.62
2022-10-28T05:48:28.000Z,11.59
2022-10-28T05:51:30.058Z,11.52
2022-10-28T05:54:32.584Z,11.47
2022-10-28T05:57:35.662Z,11.49
2022-10-28T06:00:38.035Z,11.48
2022-10-28T06:03:40.479Z,11.48
2022-10-28T06:06:42.659Z,11.48
2022-10-28T06:09:44.987Z,11.50
2022-10-28T06:12:45.511Z,11.48
2022-10-28T06:15:55.184Z,11.58
2022-10-28T06:18:57.292Z,11.57
2022-10-28T06:21:59.722Z,11.55
2022-10-28T06:25:02.072Z,11.49
2022-10-28T06:28:09.590Z,11.57
2022-10-28T06:31:12.622Z,11.55
2022-10-28T06:34:15.063Z,11.55
2022-10-28T06:37:17.103Z,11.46
2022-10-28T06:40:19.466Z,11.48
2022-10-28T06:43:21.527Z,11.62
2022-10-28T06:46:23.882Z,11.70
2022-10-28T06:49:28.285Z,11.84
2022-10-28T06:52:30.679Z,11.84
2022-10-28T06:55:32.751Z,11.83
2022-10-28T06:58:35.359Z,12.06
2022-10-28T07:01:37.632Z,11.98
2022-10-28T07:04:39.999Z,11.89
2022-10-28T07:07:42.087Z,11.94
2022-10-28T07:10:44.405Z,11.92
2022-10-28T07:13:48.891Z,11.98
2022-10-28T07:16:51.488Z,11.93
2022-10-28T07:19:53.543Z,11.88
2022-10-28T07:23:00.730Z,11.83
2022-10-28T07:26:03.050Z,11.92
2022-10-28T07:29:05.395Z,12.18
2022-10-28T07:32:07.527Z,12.19
2022-10-28T07:35:09.864Z,12.08
2022-10-28T07:38:12.018Z,12.13
2022-10-28T07:41:14.376Z,12.13
2022-10-28T07:44:16.468Z,12.24
2022-10-28T07:47:20.088Z,12.26
2022-10-28T07:50:22.210Z,12.13
2022-10-28T07:53:27.718Z,12.24
2022-10-28T07:56:31.127Z,12.09
2022-10-28T07:59:33.516Z,12.14
2022-10-28T08:02:35.586Z,12.23
2022-10-28T08:05:37.909Z,12.41
2022-10-28T08:08:40.104Z,12.47
2022-10-28T08:11:42.473Z,12.69
2022-10-28T08:14:44.603Z,12.56
2022-10-28T08:17:51.272Z,12.47
2022-10-28T08:20:53.599Z,12.39
2022-10-28T08:23:55.952Z,12.49
2022-10-28T08:26:58.036Z,12.61
2022-10-28T08:30:00.353Z,12.58
2022-10-28T08:33:02.394Z,12.67
2022-10-28T08:36:06.319Z,12.73
2022-10-28T08:39:08.397Z,12.85
2022-10-28T08:42:37.305Z,12.66
2022-10-28T08:45:56.327Z,12.73
2022-10-28T08:49:02.778Z,12.86
2022-10-28T08:52:40.452Z,12.64
2022-10-28T08:55:46.863Z,12.41
2022-10-28T08:58:51.998Z,12.35
2022-10-28T09:02:00.989Z,12.54
2022-10-28T09:05:17.361Z,12.36
2022-10-28T09:08:25.596Z,12.41
2022-10-28T09:11:56.476Z,12.64
2022-10-28T09:15:19.195Z,12.79
2022-10-28T09:18:36.588Z,12.60
2022-10-28T09:21:50.735Z,12.53
2022-10-28T09:25:02.604Z,12.58
2022-10-28T09:28:08.244Z,12.54
2022-10-28T09:31:28.817Z,12.53
2022-10-28T09:34:44.273Z,12.66
2022-10-28T09:38:05.729Z,12.75
2022-10-28T09:41:17.551Z,12.61
2022-10-28T09:44:28.414Z,12.77
2022-10-28T09:47:37.318Z,12.56
2022-10-28T09:50:39.606Z,12.50
2022-10-28T09:53:48.044Z,12.74
2022-10-28T09:56:51.352Z,12.82
2022-10-28T09:59:54.130Z,12.75
2022-10-28T10:02:57.994Z,12.77
2022-10-28T10:06:12.119Z,12.75
2022-10-28T10:09:20.272Z,12.95
2022-10-28T10:12:22.678Z,12.87
2022-10-28T10:15:36.878Z,12.78
2022-10-28T10:18:46.690Z,12.68
2022-10-28T10:21:53.052Z,12.77
2022-10-28T10:24:55.379Z,13.00
2022-10-28T10:28:00.448Z,13.12
2022-10-28T10:31:08.154Z,13.17
2022-10-28T10:34:37.098Z,12.95
2022-10-28T10:37:43.787Z,13.19
2022-10-28T10:40:53.087Z,13.18
2022-10-28T10:43:55.468Z,13.21
2022-10-28T10:47:05.078Z,13.40
2022-10-28T10:53:38.353Z,13.34
2022-10-28T10:56:41.636Z,13.16
2022-10-28T10:59:49.326Z,13.20
2022-10-28T11:02:55.046Z,13.16
2022-10-28T11:06:21.824Z,13.18
2022-10-28T11:09:30.872Z,13.17
2022-10-28T11:12:36.934Z,13.24
2022-10-28T11:15:39.256Z,13.14
2022-10-28T11:18:44.080Z,13.01
2022-10-28T11:22:07.069Z,12.93
2022-10-28T11:25:29.686Z,13.12
2022-10-28T11:28:44.041Z,13.16
2022-10-28T11:31:53.056Z,13.05
2022-10-28T11:35:19.877Z,13.00
2022-10-28T11:39:01.037Z,13.07
2022-10-28T11:42:12.196Z,13.09
2022-10-28T11:45:51.190Z,12.99
2022-10-28T11:49:02.839Z,13.10
2022-10-28T11:52:32.790Z,13.00
2022-10-28T11:56:14.983Z,13.12
2022-10-28T11:59:23.241Z,13.13
2022-10-28T12:02:43.804Z,12.98
2022-10-28T12:06:12.104Z,12.79
2022-10-28T12:10:05.617Z,12.80
2022-10-28T12:13:37.362Z,12.87
2022-10-28T12:16:54.258Z,12.87
2022-10-28T12:20:07.479Z,12.78
2022-10-28T12:23:16.823Z,12.86
2022-10-28T12:26:22.329Z,13.05
2022-10-28T12:29:29.886Z,13.00
2022-10-28T12:32:35.347Z,13.08
2022-10-28T12:35:54.508Z,13.07
2022-10-28T12:39:18.037Z,13.09
2022-10-28T12:42:35.597Z,13.04
2022-10-28T12:45:39.987Z,12.99
2022-10-28T12:48:48.402Z,12.85
2022-10-28T12:51:51.345Z,12.86
2022-10-28T12:55:07.454Z,12.61
2022-10-28T12:58:19.082Z,12.64
2022-10-28T13:01:24.464Z,12.64
2022-10-28T13:04:28.565Z,12.72
2022-10-28T13:07:58.603Z,12.85
2022-10-28T13:11:19.745Z,12.70
2022-10-28T13:14:50.804Z,12.71
2022-10-28T13:18:29.761Z,12.70
2022-10-28T13:21:50.359Z,12.64
2022-10-28T13:25:02.124Z,12.76
2022-10-28T13:28:04.561Z,12.72
2022-10-28T13:31:08.510Z,12.64
2022-10-28T13:34:14.711Z,12.68
2022-10-28T13:37:19.477Z,12.73
2022-10-28T13:40:42.937Z,12.67
2022-10-28T13:44:08.319Z,12.68
2022-10-28T13:47:13.389Z,12.77
2022-10-28T13:50:22.737Z,12.73
2022-10-28T13:53:25.255Z,12.66
2022-10-28T13:56:32.156Z,12.57
2022-10-28T13:59:47.390Z,12.56
2022-10-28T14:03:02.503Z,12.50
2022-10-28T14:06:05.462Z,12.53
2022-10-28T14:09:20.570Z,12.40
2022-10-28T14:12:26.956Z,12.29
2022-10-28T14:15:35.891Z,13.02
2022-10-28T14:18:44.149Z,14.18
2022-10-28T14:22:02.662Z,12.79
2022-10-28T14:25:40.639Z,12.48
2022-10-28T14:28:42.610Z,12.46
2022-10-28T14:31:45.076Z,12.08
2022-10-28T14:34:47.982Z,12.03
2022-10-28T14:38:06.300Z,12.09
2022-10-28T14:41:25.730Z,12.16
2022-10-28T14:45:09.469Z,12.19
2022-10-28T14:48:17.164Z,12.16
2022-10-28T14:51:23.882Z,12.17
2022-10-28T14:54:44.219Z,12.15
2022-10-28T14:57:46.467Z,12.17
2022-10-28T15:01:17.628Z,12.20
